sensor_id;sensor_type;location;lat;lon;timestamp;P1;durP1;ratioP1;P2;durP2;ratioP2
59530;SDS011;45349;48.692;8.186;2022-09-03T00:02:01;3.27;;;2.23;;
59530;SDS011;45349;48.692;8.186;2022-09-03T00:04:36;2.93;;;2.10;;
59530;SDS011;45349;48.692;8.186;2022-09-03T00:07:10;3.87;;;2.00;;
59530;SDS011;45349;48.692;8.186;2022-09-03T00:09:45;6.33;;;2.43;;
59530;SDS011;45349;48.692;8.186;2022-09-03T00:12:17;3.17;;;2.30;;
59530;SDS011;45349;48.692;8.186;2022-09-03T00:14:49;5.10;;;2.60;;
59530;SDS011;45349;48.692;8.186;2022-09-03T00:17:18;2.40;;;2.20;;
59530;SDS011;45349;48.692;8.186;2022-09-03T00:19:52;3.80;;;2.60;;
59530;SDS011;45349;48.692;8.186;2022-09-03T00:22:22;7.13;;;2.37;;
59530;SDS011;45349;48.692;8.186;2022-09-03T00:24:54;4.37;;;2.60;;
59530;SDS011;45349;48.692;8.186;2022-09-03T00:27:25;4.30;;;2.17;;
59530;SDS011;45349;48.692;8.186;2022-09-03T00:29:54;6.50;;;2.23;;
59530;SDS011;45349;48.692;8.186;2022-09-03T00:32:26;5.23;;;2.50;;
59530;SDS011;45349;48.692;8.186;2022-09-03T00:35:00;3.60;;;2.40;;
59530;SDS011;45349;48.692;8.186;2022-09-03T00:37:28;3.37;;;2.50;;
59530;SDS011;45349;48.692;8.186;2022-09-03T00:39:56;2.60;;;2.40;;
59530;SDS011;45349;48.692;8.186;2022-09-03T00:42:26;2.77;;;2.50;;
59530;SDS011;45349;48.692;8.186;2022-09-03T00:45:09;5.17;;;2.70;;
59530;SDS011;45349;48.692;8.186;2022-09-03T00:47:49;3.20;;;2.63;;
59530;SDS011;45349;48.692;8.186;2022-09-03T00:50:26;2.77;;;2.50;;
59530;SDS011;45349;48.692;8.186;2022-09-03T00:53:05;2.53;;;2.33;;
59530;SDS011;45349;48.692;8.186;2022-09-03T00:55:44;2.67;;;2.47;;
59530;SDS011;45349;48.692;8.186;2022-09-03T00:58:30;5.40;;;2.87;;
59530;SDS011;45349;48.692;8.186;2022-09-03T01:01:06;3.10;;;2.80;;
59530;SDS011;45349;48.692;8.186;2022-09-03T01:03:39;3.10;;;2.80;;
59530;SDS011;45349;48.692;8.186;2022-09-03T01:06:16;4.17;;;2.60;;
59530;SDS011;45349;48.692;8.186;2022-09-03T01:11:48;4.33;;;2.70;;
59530;SDS011;45349;48.692;8.186;2022-09-03T01:14:28;3.50;;;3.00;;
59530;SDS011;45349;48.692;8.186;2022-09-03T01:17:06;3.77;;;2.83;;
59530;SDS011;45349;48.692;8.186;2022-09-03T01:19:49;4.77;;;3.20;;
59530;SDS011;45349;48.692;8.186;2022-09-03T01:22:33;3.10;;;2.80;;
59530;SDS011;45349;48.692;8.186;2022-09-03T01:25:17;2.50;;;2.30;;
59530;SDS011;45349;48.692;8.186;2022-09-03T01:28:01;3.70;;;2.67;;
59530;SDS011;45349;48.692;8.186;2022-09-03T01:30:39;3.17;;;2.87;;
59530;SDS011;45349;48.692;8.186;2022-09-03T01:33:15;6.47;;;3.20;;
59530;SDS011;45349;48.692;8.186;2022-09-03T01:35:45;3.87;;;2.70;;
59530;SDS011;45349;48.692;8.186;2022-09-03T01:38:17;6.47;;;3.07;;
59530;SDS011;45349;48.692;8.186;2022-09-03T01:40:54;3.67;;;2.80;;
59530;SDS011;45349;48.692;8.186;2022-09-03T01:43:47;4.93;;;2.70;;
59530;SDS011;45349;48.692;8.186;2022-09-03T01:46:23;4.07;;;3.00;;
59530;SDS011;45349;48.692;8.186;2022-09-03T01:48:53;3.33;;;2.63;;
59530;SDS011;45349;48.692;8.186;2022-09-03T01:51:29;3.07;;;2.77;;
59530;SDS011;45349;48.692;8.186;2022-09-03T01:54:11;3.87;;;2.63;;
59530;SDS011;45349;48.692;8.186;2022-09-03T01:57:14;7.03;;;2.90;;
59530;SDS011;45349;48.692;8.186;2022-09-03T02:00:02;5.47;;;2.80;;
59530;SDS011;45349;48.692;8.186;2022-09-03T02:02:38;3.50;;;2.93;;
59530;SDS011;45349;48.692;8.186;2022-09-03T02:05:07;3.10;;;2.67;;
59530;SDS011;45349;48.692;8.186;2022-09-03T02:07:37;2.83;;;2.63;;
59530;SDS011;45349;48.692;8.186;2022-09-03T02:10:06;3.90;;;2.80;;
59530;SDS011;45349;48.692;8.186;2022-09-03T02:12:34;5.00;;;2.90;;
59530;SDS011;45349;48.692;8.186;2022-09-03T02:15:05;4.93;;;2.73;;
59530;SDS011;45349;48.692;8.186;2022-09-03T02:17:37;4.23;;;2.97;;
59530;SDS011;45349;48.692;8.186;2022-09-03T02:20:24;6.10;;;3.53;;
59530;SDS011;45349;48.692;8.186;2022-09-03T02:22:53;3.60;;;2.90;;
59530;SDS011;45349;48.692;8.186;2022-09-03T02:25:23;3.77;;;2.63;;
59530;SDS011;45349;48.692;8.186;2022-09-03T02:27:55;5.10;;;3.03;;
59530;SDS011;45349;48.692;8.186;2022-09-03T02:30:24;3.20;;;2.90;;
59530;SDS011;45349;48.692;8.186;2022-09-03T02:32:51;3.03;;;2.77;;
59530;SDS011;45349;48.692;8.186;2022-09-03T02:35:18;6.27;;;3.50;;
59530;SDS011;45349;48.692;8.186;2022-09-03T02:37:45;4.53;;;2.80;;
59530;SDS011;45349;48.692;8.186;2022-09-03T02:40:30;3.33;;;3.00;;
59530;SDS011;45349;48.692;8.186;2022-09-03T02:42:57;3.30;;;2.90;;
59530;SDS011;45349;48.692;8.186;2022-09-03T02:45:27;5.97;;;2.90;;
59530;SDS011;45349;48.692;8.186;2022-09-03T02:47:56;3.67;;;2.73;;
59530;SDS011;45349;48.692;8.186;2022-09-03T02:50:24;5.57;;;2.83;;
59530;SDS011;45349;48.692;8.186;2022-09-03T02:52:52;2.67;;;2.43;;
59530;SDS011;45349;48.692;8.186;2022-09-03T02:55:19;3.83;;;2.87;;
59530;SDS011;45349;48.692;8.186;2022-09-03T02:57:46;3.27;;;3.03;;
59530;SDS011;45349;48.692;8.186;2022-09-03T03:00:13;4.53;;;2.40;;
59530;SDS011;45349;48.692;8.186;2022-09-03T03:02:41;3.30;;;3.00;;
59530;SDS011;45349;48.692;8.186;2022-09-03T03:05:08;3.17;;;2.87;;
59530;SDS011;45349;48.692;8.186;2022-09-03T03:07:42;7.43;;;3.30;;
59530;SDS011;45349;48.692;8.186;2022-09-03T03:10:09;6.23;;;3.00;;
59530;SDS011;45349;48.692;8.186;2022-09-03T03:12:36;8.03;;;3.13;;
59530;SDS011;45349;48.692;8.186;2022-09-03T03:15:03;4.63;;;3.33;;
59530;SDS011;45349;48.692;8.186;2022-09-03T03:17:31;4.70;;;3.00;;
59530;SDS011;45349;48.692;8.186;2022-09-03T03:19:59;4.13;;;2.97;;
59530;SDS011;45349;48.692;8.186;2022-09-03T03:22:25;3.60;;;3.03;;
59530;SDS011;45349;48.692;8.186;2022-09-03T03:24:52;5.93;;;3.00;;
59530;SDS011;45349;48.692;8.186;2022-09-03T03:27:21;3.97;;;2.57;;
59530;SDS011;45349;48.692;8.186;2022-09-03T03:29:48;3.33;;;2.73;;
59530;SDS011;45349;48.692;8.186;2022-09-03T03:32:15;4.80;;;2.67;;
59530;SDS011;45349;48.692;8.186;2022-09-03T03:34:41;6.13;;;2.70;;
59530;SDS011;45349;48.692;8.186;2022-09-03T03:37:09;3.40;;;3.10;;
59530;SDS011;45349;48.692;8.186;2022-09-03T03:39:36;5.30;;;2.90;;
59530;SDS011;45349;48.692;8.186;2022-09-03T03:42:03;4.27;;;2.73;;
59530;SDS011;45349;48.692;8.186;2022-09-03T03:44:48;3.03;;;2.67;;
59530;SDS011;45349;48.692;8.186;2022-09-03T03:47:15;3.85;;;2.95;;
59530;SDS011;45349;48.692;8.186;2022-09-03T03:49:43;3.20;;;2.90;;
59530;SDS011;45349;48.692;8.186;2022-09-03T03:52:12;3.20;;;2.70;;
59530;SDS011;45349;48.692;8.186;2022-09-03T03:54:38;4.33;;;2.90;;
59530;SDS011;45349;48.692;8.186;2022-09-03T03:57:05;3.60;;;2.77;;
59530;SDS011;45349;48.692;8.186;2022-09-03T03:59:32;5.33;;;2.90;;
59530;SDS011;45349;48.692;8.186;2022-09-03T04:01:58;4.50;;;3.03;;
59530;SDS011;45349;48.692;8.186;2022-09-03T04:04:25;5.30;;;3.13;;
59530;SDS011;45349;48.692;8.186;2022-09-03T04:06:52;7.23;;;3.40;;
59530;SDS011;45349;48.692;8.186;2022-09-03T04:09:20;5.30;;;3.20;;
59530;SDS011;45349;48.692;8.186;2022-09-03T04:11:47;5.23;;;3.20;;
59530;SDS011;45349;48.692;8.186;2022-09-03T04:14:14;3.90;;;3.30;;
59530;SDS011;45349;48.692;8.186;2022-09-03T04:16:42;6.20;;;3.80;;
59530;SDS011;45349;48.692;8.186;2022-09-03T04:19:11;5.00;;;3.53;;
59530;SDS011;45349;48.692;8.186;2022-09-03T04:21:38;5.07;;;3.40;;
59530;SDS011;45349;48.692;8.186;2022-09-03T04:24:05;5.63;;;3.50;;
59530;SDS011;45349;48.692;8.186;2022-09-03T04:26:33;5.83;;;3.77;;
59530;SDS011;45349;48.692;8.186;2022-09-03T04:29:01;7.93;;;3.33;;
59530;SDS011;45349;48.692;8.186;2022-09-03T04:31:29;6.50;;;3.50;;
59530;SDS011;45349;48.692;8.186;2022-09-03T04:33:56;6.00;;;3.97;;
59530;SDS011;45349;48.692;8.186;2022-09-03T04:36:23;3.87;;;3.47;;
59530;SDS011;45349;48.692;8.186;2022-09-03T04:38:53;5.17;;;3.77;;
59530;SDS011;45349;48.692;8.186;2022-09-03T04:41:21;6.33;;;4.17;;
59530;SDS011;45349;48.692;8.186;2022-09-03T04:43:51;4.73;;;3.93;;
59530;SDS011;45349;48.692;8.186;2022-09-03T04:46:19;4.30;;;3.90;;
59530;SDS011;45349;48.692;8.186;2022-09-03T04:48:47;4.63;;;3.83;;
59530;SDS011;45349;48.692;8.186;2022-09-03T04:51:16;4.20;;;3.50;;
59530;SDS011;45349;48.692;8.186;2022-09-03T04:53:44;3.87;;;3.53;;
59530;SDS011;45349;48.692;8.186;2022-09-03T04:56:14;4.10;;;3.70;;
59530;SDS011;45349;48.692;8.186;2022-09-03T04:58:42;6.07;;;3.63;;
59530;SDS011;45349;48.692;8.186;2022-09-03T05:01:11;5.63;;;3.83;;
59530;SDS011;45349;48.692;8.186;2022-09-03T05:03:40;4.50;;;3.90;;
59530;SDS011;45349;48.692;8.186;2022-09-03T05:06:07;3.90;;;3.60;;
59530;SDS011;45349;48.692;8.186;2022-09-03T05:08:35;4.87;;;3.30;;
59530;SDS011;45349;48.692;8.186;2022-09-03T05:11:02;5.87;;;3.50;;
59530;SDS011;45349;48.692;8.186;2022-09-03T05:13:30;4.23;;;3.83;;
59530;SDS011;45349;48.692;8.186;2022-09-03T05:15:58;4.77;;;3.97;;
59530;SDS011;45349;48.692;8.186;2022-09-03T05:18:27;5.80;;;3.83;;
59530;SDS011;45349;48.692;8.186;2022-09-03T05:20:57;4.50;;;3.80;;
59530;SDS011;45349;48.692;8.186;2022-09-03T05:23:25;4.60;;;3.97;;
59530;SDS011;45349;48.692;8.186;2022-09-03T05:25:55;4.43;;;4.03;;
59530;SDS011;45349;48.692;8.186;2022-09-03T05:28:23;4.57;;;3.90;;
59530;SDS011;45349;48.692;8.186;2022-09-03T05:30:57;6.80;;;4.03;;
59530;SDS011;45349;48.692;8.186;2022-09-03T05:33:25;7.70;;;4.50;;
59530;SDS011;45349;48.692;8.186;2022-09-03T05:35:53;4.73;;;4.27;;
59530;SDS011;45349;48.692;8.186;2022-09-03T05:38:20;5.83;;;4.43;;
59530;SDS011;45349;48.692;8.186;2022-09-03T05:40:47;7.30;;;4.40;;
59530;SDS011;45349;48.692;8.186;2022-09-03T05:43:13;9.63;;;4.33;;
59530;SDS011;45349;48.692;8.186;2022-09-03T05:45:41;5.60;;;4.60;;
59530;SDS011;45349;48.692;8.186;2022-09-03T05:48:08;5.50;;;4.70;;
59530;SDS011;45349;48.692;8.186;2022-09-03T05:50:35;6.70;;;4.70;;
59530;SDS011;45349;48.692;8.186;2022-09-03T05:53:03;5.23;;;4.30;;
59530;SDS011;45349;48.692;8.186;2022-09-03T05:55:29;4.73;;;4.23;;
59530;SDS011;45349;48.692;8.186;2022-09-03T05:57:56;8.30;;;3.93;;
59530;SDS011;45349;48.692;8.186;2022-09-03T06:00:23;5.60;;;4.30;;
59530;SDS011;45349;48.692;8.186;2022-09-03T06:02:50;4.60;;;4.00;;
59530;SDS011;45349;48.692;8.186;2022-09-03T06:05:17;4.43;;;4.00;;
59530;SDS011;45349;48.692;8.186;2022-09-03T06:07:44;5.10;;;4.37;;
59530;SDS011;45349;48.692;8.186;2022-09-03T06:10:15;4.50;;;3.83;;
59530;SDS011;45349;48.692;8.186;2022-09-03T06:12:42;4.37;;;3.77;;
59530;SDS011;45349;48.692;8.186;2022-09-03T06:15:14;4.20;;;3.80;;
59530;SDS011;45349;48.692;8.186;2022-09-03T06:17:41;3.73;;;3.43;;
59530;SDS011;45349;48.692;8.186;2022-09-03T06:20:08;4.20;;;3.80;;
59530;SDS011;45349;48.692;8.186;2022-09-03T06:22:54;4.47;;;3.57;;
59530;SDS011;45349;48.692;8.186;2022-09-03T06:25:22;4.87;;;4.03;;
59530;SDS011;45349;48.692;8.186;2022-09-03T06:27:49;5.90;;;4.03;;
59530;SDS011;45349;48.692;8.186;2022-09-03T06:30:16;4.30;;;3.73;;
59530;SDS011;45349;48.692;8.186;2022-09-03T06:32:43;4.37;;;3.60;;
59530;SDS011;45349;48.692;8.186;2022-09-03T06:35:10;5.33;;;4.83;;
59530;SDS011;45349;48.692;8.186;2022-09-03T06:37:37;6.20;;;4.10;;
59530;SDS011;45349;48.692;8.186;2022-09-03T06:40:05;6.00;;;3.80;;
59530;SDS011;45349;48.692;8.186;2022-09-03T06:42:38;5.37;;;3.87;;
59530;SDS011;45349;48.692;8.186;2022-09-03T06:45:06;5.20;;;4.47;;
59530;SDS011;45349;48.692;8.186;2022-09-03T06:47:34;5.33;;;4.00;;
59530;SDS011;45349;48.692;8.186;2022-09-03T06:50:01;4.07;;;3.53;;
59530;SDS011;45349;48.692;8.186;2022-09-03T06:52:28;4.47;;;3.90;;
59530;SDS011;45349;48.692;8.186;2022-09-03T06:54:57;4.37;;;3.97;;
59530;SDS011;45349;48.692;8.186;2022-09-03T06:57:24;4.90;;;3.73;;
59530;SDS011;45349;48.692;8.186;2022-09-03T06:59:52;6.33;;;3.47;;
59530;SDS011;45349;48.692;8.186;2022-09-03T07:02:19;4.33;;;3.23;;
59530;SDS011;45349;48.692;8.186;2022-09-03T07:04:47;3.93;;;3.47;;
59530;SDS011;45349;48.692;8.186;2022-09-03T07:07:14;4.77;;;3.47;;
59530;SDS011;45349;48.692;8.186;2022-09-03T07:09:41;3.70;;;3.20;;
59530;SDS011;45349;48.692;8.186;2022-09-03T07:12:08;3.70;;;3.27;;
59530;SDS011;45349;48.692;8.186;2022-09-03T07:14:36;3.60;;;3.30;;
59530;SDS011;45349;48.692;8.186;2022-09-03T07:17:04;4.53;;;3.30;;
59530;SDS011;45349;48.692;8.186;2022-09-03T07:19:31;5.50;;;2.97;;
59530;SDS011;45349;48.692;8.186;2022-09-03T07:21:57;4.17;;;2.80;;
59530;SDS011;45349;48.692;8.186;2022-09-03T07:24:25;5.53;;;3.40;;
59530;SDS011;45349;48.692;8.186;2022-09-03T07:26:51;4.80;;;3.23;;
59530;SDS011;45349;48.692;8.186;2022-09-03T07:29:19;3.53;;;3.10;;
59530;SDS011;45349;48.692;8.186;2022-09-03T07:31:46;4.33;;;3.20;;
59530;SDS011;45349;48.692;8.186;2022-09-03T07:34:35;4.50;;;2.90;;
59530;SDS011;45349;48.692;8.186;2022-09-03T07:37:02;6.87;;;2.83;;
59530;SDS011;45349;48.692;8.186;2022-09-03T07:39:29;5.27;;;2.60;;
59530;SDS011;45349;48.692;8.186;2022-09-03T07:41:57;5.10;;;3.13;;
59530;SDS011;45349;48.692;8.186;2022-09-03T07:44:24;6.23;;;2.97;;
59530;SDS011;45349;48.692;8.186;2022-09-03T07:46:52;4.68;;;3.00;;
59530;SDS011;45349;48.692;8.186;2022-09-03T07:49:20;3.60;;;2.80;;
59530;SDS011;45349;48.692;8.186;2022-09-03T07:51:48;4.10;;;3.03;;
59530;SDS011;45349;48.692;8.186;2022-09-03T07:54:18;4.43;;;2.80;;
59530;SDS011;45349;48.692;8.186;2022-09-03T07:56:46;3.53;;;2.90;;
59530;SDS011;45349;48.692;8.186;2022-09-03T07:59:12;6.27;;;3.07;;
59530;SDS011;45349;48.692;8.186;2022-09-03T08:01:39;3.13;;;2.80;;
59530;SDS011;45349;48.692;8.186;2022-09-03T08:04:06;4.70;;;3.30;;
59530;SDS011;45349;48.692;8.186;2022-09-03T08:06:33;3.40;;;3.00;;
59530;SDS011;45349;48.692;8.186;2022-09-03T08:09:03;5.20;;;3.10;;
59530;SDS011;45349;48.692;8.186;2022-09-03T08:11:31;4.47;;;2.90;;
59530;SDS011;45349;48.692;8.186;2022-09-03T08:14:02;4.83;;;3.27;;
59530;SDS011;45349;48.692;8.186;2022-09-03T08:16:30;3.27;;;2.70;;
59530;SDS011;45349;48.692;8.186;2022-09-03T08:18:59;4.47;;;2.90;;
59530;SDS011;45349;48.692;8.186;2022-09-03T08:21:26;3.53;;;2.83;;
59530;SDS011;45349;48.692;8.186;2022-09-03T08:23:54;5.20;;;2.80;;
59530;SDS011;45349;48.692;8.186;2022-09-03T08:26:28;2.90;;;2.53;;
59530;SDS011;45349;48.692;8.186;2022-09-03T08:28:56;5.27;;;3.10;;
59530;SDS011;45349;48.692;8.186;2022-09-03T08:31:23;3.53;;;2.67;;
59530;SDS011;45349;48.692;8.186;2022-09-03T08:33:52;3.07;;;2.60;;
59530;SDS011;45349;48.692;8.186;2022-09-03T08:36:21;3.17;;;2.67;;
59530;SDS011;45349;48.692;8.186;2022-09-03T08:38:49;4.87;;;2.70;;
59530;SDS011;45349;48.692;8.186;2022-09-03T08:41:19;10.53;;;3.00;;
59530;SDS011;45349;48.692;8.186;2022-09-03T08:43:58;4.27;;;2.67;;
59530;SDS011;45349;48.692;8.186;2022-09-03T08:46:38;4.77;;;3.00;;
59530;SDS011;45349;48.692;8.186;2022-09-03T08:49:17;3.93;;;2.50;;
59530;SDS011;45349;48.692;8.186;2022-09-03T08:51:48;4.63;;;2.50;;
59530;SDS011;45349;48.692;8.186;2022-09-03T08:54:18;5.10;;;2.80;;
59530;SDS011;45349;48.692;8.186;2022-09-03T08:56:49;4.10;;;2.90;;
59530;SDS011;45349;48.692;8.186;2022-09-03T08:59:18;3.87;;;2.93;;
59530;SDS011;45349;48.692;8.186;2022-09-03T09:01:48;4.70;;;2.87;;
59530;SDS011;45349;48.692;8.186;2022-09-03T09:04:23;4.03;;;2.93;;
59530;SDS011;45349;48.692;8.186;2022-09-03T09:07:04;3.93;;;3.07;;
59530;SDS011;45349;48.692;8.186;2022-09-03T09:09:38;5.17;;;2.93;;
59530;SDS011;45349;48.692;8.186;2022-09-03T09:12:15;3.37;;;2.43;;
59530;SDS011;45349;48.692;8.186;2022-09-03T09:14:55;4.43;;;2.87;;
59530;SDS011;45349;48.692;8.186;2022-09-03T09:17:48;3.40;;;2.77;;
59530;SDS011;45349;48.692;8.186;2022-09-03T09:20:27;2.77;;;2.50;;
59530;SDS011;45349;48.692;8.186;2022-09-03T09:23:00;3.10;;;2.90;;
59530;SDS011;45349;48.692;8.186;2022-09-03T09:25:30;4.30;;;3.10;;
59530;SDS011;45349;48.692;8.186;2022-09-03T09:28:07;3.63;;;2.67;;
59530;SDS011;45349;48.692;8.186;2022-09-03T09:30:43;3.30;;;3.00;;
59530;SDS011;45349;48.692;8.186;2022-09-03T09:33:11;4.43;;;2.70;;
59530;SDS011;45349;48.692;8.186;2022-09-03T09:35:38;4.03;;;2.80;;
59530;SDS011;45349;48.692;8.186;2022-09-03T09:38:06;4.37;;;2.60;;
59530;SDS011;45349;48.692;8.186;2022-09-03T09:40:34;4.20;;;2.73;;
59530;SDS011;45349;48.692;8.186;2022-09-03T09:43:03;6.33;;;3.13;;
59530;SDS011;45349;48.692;8.186;2022-09-03T09:45:35;2.83;;;2.63;;
59530;SDS011;45349;48.692;8.186;2022-09-03T09:48:14;4.03;;;2.87;;
59530;SDS011;45349;48.692;8.186;2022-09-03T09:51:04;5.37;;;2.97;;
59530;SDS011;45349;48.692;8.186;2022-09-03T09:53:32;5.10;;;2.90;;
59530;SDS011;45349;48.692;8.186;2022-09-03T09:55:59;5.17;;;3.50;;
59530;SDS011;45349;48.692;8.186;2022-09-03T09:58:27;4.13;;;3.37;;
59530;SDS011;45349;48.692;8.186;2022-09-03T10:00:56;6.53;;;3.03;;
59530;SDS011;45349;48.692;8.186;2022-09-03T10:03:28;3.77;;;3.00;;
59530;SDS011;45349;48.692;8.186;2022-09-03T10:06:00;2.87;;;2.57;;
59530;SDS011;45349;48.692;8.186;2022-09-03T10:08:51;4.77;;;3.20;;
59530;SDS011;45349;48.692;8.186;2022-09-03T10:11:20;3.40;;;3.10;;
59530;SDS011;45349;48.692;8.186;2022-09-03T10:13:51;3.13;;;2.83;;
59530;SDS011;45349;48.692;8.186;2022-09-03T10:16:21;6.00;;;3.00;;
59530;SDS011;45349;48.692;8.186;2022-09-03T10:18:56;4.27;;;3.30;;
59530;SDS011;45349;48.692;8.186;2022-09-03T10:21:31;4.87;;;2.87;;
59530;SDS011;45349;48.692;8.186;2022-09-03T10:24:16;3.40;;;2.97;;
59530;SDS011;45349;48.692;8.186;2022-09-03T10:26:54;5.47;;;3.30;;
59530;SDS011;45349;48.692;8.186;2022-09-03T10:29:22;4.63;;;2.93;;
59530;SDS011;45349;48.692;8.186;2022-09-03T10:31:58;3.93;;;3.17;;
59530;SDS011;45349;48.692;8.186;2022-09-03T10:34:37;3.27;;;2.80;;
59530;SDS011;45349;48.692;8.186;2022-09-03T10:37:14;3.63;;;2.63;;
59530;SDS011;45349;48.692;8.186;2022-09-03T10:42:43;2.23;;;2.03;;
59530;SDS011;45349;48.692;8.186;2022-09-03T10:45:18;2.70;;;2.20;;
59530;SDS011;45349;48.692;8.186;2022-09-03T10:48:10;2.87;;;1.77;;
59530;SDS011;45349;48.692;8.186;2022-09-03T10:50:56;2.27;;;1.93;;
59530;SDS011;45349;48.692;8.186;2022-09-03T10:53:36;4.93;;;2.20;;
59530;SDS011;45349;48.692;8.186;2022-09-03T10:56:15;2.20;;;1.87;;
59530;SDS011;45349;48.692;8.186;2022-09-03T10:58:55;2.07;;;1.90;;
59530;SDS011;45349;48.692;8.186;2022-09-03T11:01:34;3.07;;;2.10;;
59530;SDS011;45349;48.692;8.186;2022-09-03T11:04:32;2.60;;;2.40;;
59530;SDS011;45349;48.692;8.186;2022-09-03T11:07:11;4.00;;;2.33;;
59530;SDS011;45349;48.692;8.186;2022-09-03T11:09:40;4.30;;;2.30;;
59530;SDS011;45349;48.692;8.186;2022-09-03T11:12:15;2.03;;;1.93;;
59530;SDS011;45349;48.692;8.186;2022-09-03T11:14:49;2.53;;;2.13;;
59530;SDS011;45349;48.692;8.186;2022-09-03T11:17:29;2.70;;;2.50;;
59530;SDS011;45349;48.692;8.186;2022-09-03T11:20:03;3.43;;;2.53;;
59530;SDS011;45349;48.692;8.186;2022-09-03T11:22:41;3.23;;;2.40;;
59530;SDS011;45349;48.692;8.186;2022-09-03T11:25:10;3.53;;;2.57;;
59530;SDS011;45349;48.692;8.186;2022-09-03T11:27:46;5.73;;;2.37;;
59530;SDS011;45349;48.692;8.186;2022-09-03T11:30:22;4.00;;;2.73;;
59530;SDS011;45349;48.692;8.186;2022-09-03T11:32:51;3.13;;;2.40;;
59530;SDS011;45349;48.692;8.186;2022-09-03T11:35:25;5.73;;;3.07;;
59530;SDS011;45349;48.692;8.186;2022-09-03T11:37:56;6.77;;;3.20;;
59530;SDS011;45349;48.692;8.186;2022-09-03T11:40:28;5.23;;;2.80;;
59530;SDS011;45349;48.692;8.186;2022-09-03T11:43:04;3.37;;;3.07;;
59530;SDS011;45349;48.692;8.186;2022-09-03T11:45:34;4.57;;;3.03;;
59530;SDS011;45349;48.692;8.186;2022-09-03T11:48:15;4.67;;;2.90;;
59530;SDS011;45349;48.692;8.186;2022-09-03T11:50:51;4.60;;;2.97;;
59530;SDS011;45349;48.692;8.186;2022-09-03T11:53:24;4.83;;;3.50;;
59530;SDS011;45349;48.692;8.186;2022-09-03T11:55:59;3.37;;;3.07;;
59530;SDS011;45349;48.692;8.186;2022-09-03T11:58:28;4.07;;;3.20;;
59530;SDS011;45349;48.692;8.186;2022-09-03T12:00:59;4.53;;;3.60;;
59530;SDS011;45349;48.692;8.186;2022-09-03T12:03:29;4.30;;;3.43;;
59530;SDS011;45349;48.692;8.186;2022-09-03T12:06:21;3.83;;;3.10;;
59530;SDS011;45349;48.692;8.186;2022-09-03T12:09:07;3.30;;;2.07;;
59530;SDS011;45349;48.692;8.186;2022-09-03T12:12:11;2.03;;;1.83;;
59530;SDS011;45349;48.692;8.186;2022-09-03T12:14:53;3.90;;;1.60;;
59530;SDS011;45349;48.692;8.186;2022-09-03T12:17:30;1.63;;;1.40;;
59530;SDS011;45349;48.692;8.186;2022-09-03T12:20:01;2.47;;;1.50;;
59530;SDS011;45349;48.692;8.186;2022-09-03T12:22:36;2.43;;;1.10;;
59530;SDS011;45349;48.692;8.186;2022-09-03T12:25:08;2.00;;;1.50;;
59530;SDS011;45349;48.692;8.186;2022-09-03T12:27:37;1.53;;;1.17;;
59530;SDS011;45349;48.692;8.186;2022-09-03T12:30:04;4.40;;;1.20;;
59530;SDS011;45349;48.692;8.186;2022-09-03T12:32:39;1.93;;;1.40;;
59530;SDS011;45349;48.692;8.186;2022-09-03T12:35:10;1.60;;;1.17;;
59530;SDS011;45349;48.692;8.186;2022-09-03T12:37:38;1.67;;;1.40;;
59530;SDS011;45349;48.692;8.186;2022-09-03T12:40:16;1.30;;;1.07;;
59530;SDS011;45349;48.692;8.186;2022-09-03T12:42:45;1.30;;;1.20;;
59530;SDS011;45349;48.692;8.186;2022-09-03T12:45:13;1.63;;;1.10;;
59530;SDS011;45349;48.692;8.186;2022-09-03T12:47:41;1.10;;;1.00;;
59530;SDS011;45349;48.692;8.186;2022-09-03T12:50:10;1.40;;;0.90;;
59530;SDS011;45349;48.692;8.186;2022-09-03T12:52:38;3.00;;;0.80;;
59530;SDS011;45349;48.692;8.186;2022-09-03T12:55:13;3.70;;;0.90;;
59530;SDS011;45349;48.692;8.186;2022-09-03T12:57:51;2.03;;;0.73;;
59530;SDS011;45349;48.692;8.186;2022-09-03T13:00:22;1.10;;;1.00;;
59530;SDS011;45349;48.692;8.186;2022-09-03T13:02:50;1.10;;;0.80;;
59530;SDS011;45349;48.692;8.186;2022-09-03T13:05:23;1.53;;;0.90;;
59530;SDS011;45349;48.692;8.186;2022-09-03T13:07:55;1.33;;;0.80;;
59530;SDS011;45349;48.692;8.186;2022-09-03T13:10:32;1.20;;;0.80;;
59530;SDS011;45349;48.692;8.186;2022-09-03T13:13:17;1.23;;;0.63;;
59530;SDS011;45349;48.692;8.186;2022-09-03T13:16:01;1.20;;;0.87;;
59530;SDS011;45349;48.692;8.186;2022-09-03T13:18:41;1.00;;;0.70;;
59530;SDS011;45349;48.692;8.186;2022-09-03T13:21:15;1.10;;;0.73;;
59530;SDS011;45349;48.692;8.186;2022-09-03T13:24:01;2.20;;;0.60;;
59530;SDS011;45349;48.692;8.186;2022-09-03T13:26:38;1.10;;;0.70;;
59530;SDS011;45349;48.692;8.186;2022-09-03T13:29:18;1.40;;;0.90;;
59530;SDS011;45349;48.692;8.186;2022-09-03T13:32:10;0.50;;;0.50;;
59530;SDS011;45349;48.692;8.186;2022-09-03T13:34:49;2.50;;;0.60;;
59530;SDS011;45349;48.692;8.186;2022-09-03T13:37:22;3.07;;;0.80;;
59530;SDS011;45349;48.692;8.186;2022-09-03T13:39:54;1.60;;;0.80;;
59530;SDS011;45349;48.692;8.186;2022-09-03T13:42:25;0.90;;;0.80;;
59530;SDS011;45349;48.692;8.186;2022-09-03T13:45:00;0.97;;;0.60;;
59530;SDS011;45349;48.692;8.186;2022-09-03T13:47:34;1.25;;;0.63;;
59530;SDS011;45349;48.692;8.186;2022-09-03T13:50:27;0.73;;;0.53;;
59530;SDS011;45349;48.692;8.186;2022-09-03T13:52:55;0.70;;;0.60;;
59530;SDS011;45349;48.692;8.186;2022-09-03T13:55:30;0.77;;;0.57;;
59530;SDS011;45349;48.692;8.186;2022-09-03T13:58:04;1.10;;;0.60;;
59530;SDS011;45349;48.692;8.186;2022-09-03T14:00:36;3.47;;;0.70;;
59530;SDS011;45349;48.692;8.186;2022-09-03T14:03:09;0.67;;;0.60;;
59530;SDS011;45349;48.692;8.186;2022-09-03T14:05:46;1.03;;;0.70;;
59530;SDS011;45349;48.692;8.186;2022-09-03T14:08:27;1.33;;;0.73;;
59530;SDS011;45349;48.692;8.186;2022-09-03T14:11:01;1.87;;;0.73;;
59530;SDS011;45349;48.692;8.186;2022-09-03T14:13:47;3.07;;;0.73;;
59530;SDS011;45349;48.692;8.186;2022-09-03T14:16:24;1.10;;;0.70;;
59530;SDS011;45349;48.692;8.186;2022-09-03T14:19:02;0.50;;;0.50;;
59530;SDS011;45349;48.692;8.186;2022-09-03T14:21:34;1.40;;;0.60;;
59530;SDS011;45349;48.692;8.186;2022-09-03T14:24:09;1.53;;;0.60;;
59530;SDS011;45349;48.692;8.186;2022-09-03T14:26:48;1.80;;;0.60;;
59530;SDS011;45349;48.692;8.186;2022-09-03T14:29:19;1.67;;;0.60;;
59530;SDS011;45349;48.692;8.186;2022-09-03T14:31:58;1.00;;;0.60;;
59530;SDS011;45349;48.692;8.186;2022-09-03T14:34:37;0.67;;;0.50;;
59530;SDS011;45349;48.692;8.186;2022-09-03T14:37:24;1.10;;;0.60;;
59530;SDS011;45349;48.692;8.186;2022-09-03T14:40:04;0.60;;;0.60;;
59530;SDS011;45349;48.692;8.186;2022-09-03T14:42:42;1.07;;;0.67;;
59530;SDS011;45349;48.692;8.186;2022-09-03T14:45:22;0.70;;;0.60;;
59530;SDS011;45349;48.692;8.186;2022-09-03T14:48:10;0.70;;;0.50;;
59530;SDS011;45349;48.692;8.186;2022-09-03T14:50:56;0.73;;;0.60;;
59530;SDS011;45349;48.692;8.186;2022-09-03T14:56:41;5.63;;;0.70;;
59530;SDS011;45349;48.692;8.186;2022-09-03T14:59:21;0.70;;;0.60;;
59530;SDS011;45349;48.692;8.186;2022-09-03T15:05:13;0.57;;;0.50;;
59530;SDS011;45349;48.692;8.186;2022-09-03T15:07:47;1.87;;;0.50;;
59530;SDS011;45349;48.692;8.186;2022-09-03T15:10:20;0.83;;;0.60;;
59530;SDS011;45349;48.692;8.186;2022-09-03T15:12:58;0.70;;;0.60;;
59530;SDS011;45349;48.692;8.186;2022-09-03T15:15:32;0.97;;;0.57;;
59530;SDS011;45349;48.692;8.186;2022-09-03T15:18:14;0.90;;;0.40;;
59530;SDS011;45349;48.692;8.186;2022-09-03T15:20:56;2.57;;;0.60;;
59530;SDS011;45349;48.692;8.186;2022-09-03T15:23:45;1.53;;;0.60;;
59530;SDS011;45349;48.692;8.186;2022-09-03T15:26:30;1.53;;;0.73;;
59530;SDS011;45349;48.692;8.186;2022-09-03T15:29:23;2.20;;;0.40;;
59530;SDS011;45349;48.692;8.186;2022-09-03T15:32:05;0.90;;;0.40;;
59530;SDS011;45349;48.692;8.186;2022-09-03T15:34:53;1.40;;;0.60;;